Time;durP1;ratioP1;P1;durP2;ratioP2;P2;SDS_P1;SDS_P2;PMS_P1;PMS_P2;Temp;Humidity;BMP_temperature;BMP_pressure;BME280_temperature;BME280_humidity;BME280_pressure;Samples;Min_cycle;Max_cycle;Signal;HPM_P1;HPM_P2
2022/09/09 00:01:04;;;;;;;9.55;6.15;;;19.70;83.40;;;;;;5054831;28;20029;-15
2022/09/09 00:03:57;;;;;;;7.78;5.43;;;19.60;83.40;;;;;;5054829;28;20033;-17
2022/09/09 00:06:42;;;;;;;6.97;5.05;;;19.60;83.60;;;;;;5054980;28;20020;-15
2022/09/09 00:09:17;;;;;;;7.43;4.88;;;19.50;83.60;;;;;;5094383;28;20519;-16
2022/09/09 00:11:50;;;;;;;8.55;5.47;;;19.40;83.70;;;;;;5097073;28;20020;-16
2022/09/09 00:14:39;;;;;;;5.93;4.88;;;19.50;83.80;;;;;;5097029;28;20024;-16
2022/09/09 00:17:25;;;;;;;8.10;5.22;;;19.40;83.80;;;;;;5096665;28;20425;-15
2022/09/09 00:20:01;;;;;;;9.02;5.50;;;19.40;83.80;;;;;;5097220;28;20052;-16
2022/09/09 00:22:31;;;;;;;8.13;4.95;;;19.40;83.80;;;;;;5097234;28;20016;-16
2022/09/09 00:25:11;;;;;;;10.18;5.80;;;19.40;83.80;;;;;;5096843;28;20057;-16
2022/09/09 00:27:49;;;;;;;9.85;5.80;;;19.40;83.80;;;;;;5097340;28;20028;-16
2022/09/09 00:30:23;;;;;;;14.10;7.15;;;19.40;83.90;;;;;;5096575;28;20028;-16
2022/09/09 00:33:02;;;;;;;12.15;5.82;;;19.30;83.90;;;;;;5096740;28;20035;-15
2022/09/09 00:35:39;;;;;;;10.38;5.72;;;19.30;84.00;;;;;;5096574;28;20493;-16
2022/09/09 00:38:25;;;;;;;9.82;6.20;;;19.30;84.10;;;;;;5096868;28;20036;-16
2022/09/09 00:41:22;;;;;;;12.57;6.70;;;19.30;84.00;;;;;;5096273;28;20498;-16
2022/09/09 00:44:20;;;;;;;9.40;6.30;;;19.30;84.00;;;;;;5093086;28;20364;-15
2022/09/09 00:47:23;;;;;;;15.05;7.97;;;19.30;84.10;;;;;;5078780;28;20043;-16
2022/09/09 00:50:09;;;;;;;10.75;6.80;;;19.20;84.30;;;;;;5096568;28;20040;-16
2022/09/09 00:52:48;;;;;;;9.18;6.50;;;19.20;84.40;;;;;;5096286;28;20036;-16
2022/09/09 00:55:32;;;;;;;14.50;7.55;;;19.10;84.40;;;;;;5096234;28;20027;-16
2022/09/09 00:57:58;;;;;;;11.13;7.35;;;19.10;84.60;;;;;;5096168;28;20674;-16
2022/09/09 01:00:30;;;;;;;14.05;7.40;;;19.10;84.60;;;;;;5095691;28;20107;-16
2022/09/09 01:03:11;;;;;;;13.10;8.45;;;19.10;84.70;;;;;;5095949;28;20031;-16
2022/09/09 01:05:52;;;;;;;11.70;6.35;;;19.10;84.70;;;;;;5096377;28;20024;-15
2022/09/09 01:08:33;;;;;;;11.00;6.80;;;19.10;84.80;;;;;;5095843;28;20028;-15
2022/09/09 01:11:00;;;;;;;9.00;6.05;;;19.00;84.80;;;;;;5095747;28;20070;-16
2022/09/09 01:13:36;;;;;;;11.65;6.65;;;19.10;84.80;;;;;;5096492;28;20055;-16
2022/09/09 01:16:07;;;;;;;12.75;6.93;;;19.10;84.80;;;;;;5095677;28;20110;-16
2022/09/09 01:18:37;;;;;;;10.27;6.70;;;19.00;84.80;;;;;;5095722;28;20027;-16
2022/09/09 01:21:09;;;;;;;9.07;5.85;;;19.00;84.90;;;;;;5095768;28;20059;-16
2022/09/09 01:24:07;;;;;;;8.10;5.47;;;19.00;84.80;;;;;;5095569;28;20024;-16
2022/09/09 01:26:40;;;;;;;13.68;8.57;;;19.00;84.90;;;;;;5053307;28;20045;-16
2022/09/09 01:29:10;;;;;;;;;;;18.90;85.00;;;;;;5053394;28;20155;-16
2022/09/09 01:31:41;;;;;;;11.80;6.40;;;18.90;85.40;;;;;;5053359;28;20370;-16
2022/09/09 01:34:15;;;;;;;10.88;6.03;;;18.90;85.10;;;;;;5053449;28;20067;-16
2022/09/09 01:36:50;;;;;;;14.60;7.10;;;18.90;85.00;;;;;;5053271;28;20052;-15
2022/09/09 01:39:17;;;;;;;12.95;9.20;;;18.90;85.20;;;;;;5053110;28;20063;-15
2022/09/09 01:41:43;;;;;;;15.13;7.93;;;18.90;85.80;;;;;;5053012;28;20080;-16
2022/09/09 01:44:10;;;;;;;15.63;8.73;;;18.90;86.00;;;;;;5052815;28;20045;-16
2022/09/09 01:46:36;;;;;;;11.38;7.13;;;18.90;86.70;;;;;;5052785;28;20045;-16
2022/09/09 01:49:06;;;;;;;14.40;8.77;;;18.90;86.70;;;;;;5052488;28;20025;-16
2022/09/09 01:51:31;;;;;;;15.20;8.32;;;18.90;86.50;;;;;;5052788;28;20036;-16
2022/09/09 01:53:57;;;;;;;13.30;8.68;;;19.00;86.50;;;;;;5052973;28;20032;-14
2022/09/09 01:56:41;;;;;;;15.93;8.65;;;19.00;86.80;;;;;;5052787;28;20120;-16
2022/09/09 01:59:18;;;;;;;12.32;7.78;;;19.00;86.60;;;;;;5052538;28;20399;-16
2022/09/09 02:01:52;;;;;;;17.25;9.02;;;19.00;86.70;;;;;;5052751;28;20033;-16
2022/09/09 02:04:41;;;;;;;13.50;8.05;;;19.00;87.00;;;;;;5094896;28;20107;-15
2022/09/09 02:07:52;;;;;;;14.43;7.60;;;19.10;86.70;;;;;;5094366;28;20615;-16
2022/09/09 02:10:37;;;;;;;12.27;8.07;;;19.00;86.50;;;;;;5052366;28;20040;-16
2022/09/09 02:13:14;;;;;;;12.48;6.55;;;19.00;86.60;;;;;;5051549;28;20400;-14
2022/09/09 02:15:56;;;;;;;11.10;6.70;;;19.10;86.60;;;;;;5052218;28;20040;-16
2022/09/09 02:18:30;;;;;;;8.65;5.70;;;19.10;86.70;;;;;;5052590;28;20025;-16
2022/09/09 02:20:57;;;;;;;10.13;5.88;;;19.10;86.50;;;;;;5052106;28;20119;-16
2022/09/09 02:23:24;;;;;;;10.30;5.72;;;19.10;86.30;;;;;;5052206;28;20057;-16
2022/09/09 02:25:53;;;;;;;12.15;5.78;;;19.20;86.40;;;;;;5052105;28;20075;-17
2022/09/09 02:28:23;;;;;;;11.73;6.00;;;19.20;86.30;;;;;;5052070;28;20191;-17
2022/09/09 02:30:54;;;;;;;8.20;5.00;;;19.20;86.20;;;;;;5051787;28;20025;-16
2022/09/09 02:33:26;;;;;;;7.82;5.32;;;19.10;86.10;;;;;;5052018;28;20040;-16
2022/09/09 02:35:56;;;;;;;11.18;5.65;;;19.10;86.00;;;;;;5051946;28;20025;-17
2022/09/09 02:38:28;;;;;;;9.57;5.35;;;19.20;85.90;;;;;;5051901;28;20025;-16
2022/09/09 02:40:54;;;;;;;6.97;4.25;;;19.10;85.90;;;;;;5051737;28;20107;-15
2022/09/09 02:43:20;;;;;;;8.27;4.55;;;19.10;85.80;;;;;;5051802;28;20028;-16
2022/09/09 02:46:28;;;;;;;8.05;5.05;;;19.10;85.90;;;;;;5057087;28;20045;-16
2022/09/09 02:49:08;;;;;;;9.55;5.03;;;19.20;85.80;;;;;;5091960;28;20055;-17
2022/09/09 02:52:05;;;;;;;9.70;5.25;;;19.20;85.90;;;;;;5094010;28;20054;-16
2022/09/09 02:54:35;;;;;;;8.82;4.90;;;19.10;86.00;;;;;;5093862;28;20073;-16
2022/09/09 02:57:22;;;;;;;10.18;4.88;;;19.10;86.00;;;;;;5093910;28;20073;-16
2022/09/09 02:59:50;;;;;;;8.70;4.43;;;19.10;85.70;;;;;;5094160;28;20172;-16
2022/09/09 03:02:16;;;;;;;11.52;5.25;;;19.20;85.70;;;;;;5093968;28;20483;-16
2022/09/09 03:04:44;;;;;;;11.63;4.25;;;19.20;85.40;;;;;;5093702;28;20028;-15
2022/09/09 03:07:11;;;;;;;7.85;4.60;;;19.20;85.30;;;;;;5093576;28;20036;-17
2022/09/09 03:09:38;;;;;;;5.28;4.50;;;19.20;85.20;;;;;;5093713;28;20031;-15
2022/09/09 03:12:04;;;;;;;6.05;3.70;;;19.20;85.10;;;;;;5093606;28;20022;-14
2022/09/09 03:14:30;;;;;;;4.00;3.40;;;19.20;85.00;;;;;;5093862;28;20032;-15
2022/09/09 03:17:00;;;;;;;7.65;3.42;;;19.20;84.90;;;;;;5093531;28;20027;-16
2022/09/09 03:19:27;;;;;;;6.53;3.97;;;19.20;84.80;;;;;;5093471;28;20032;-16
2022/09/09 03:21:54;;;;;;;7.40;3.92;;;19.20;84.80;;;;;;5093761;28;20020;-16
2022/09/09 03:24:20;;;;;;;5.95;3.80;;;19.20;84.70;;;;;;5093406;28;20039;-16
2022/09/09 03:26:46;;;;;;;5.72;3.50;;;19.20;84.70;;;;;;5093711;28;20024;-16
2022/09/09 03:29:13;;;;;;;6.07;3.65;;;19.20;84.60;;;;;;5093439;28;20107;-16
2022/09/09 03:31:39;;;;;;;6.30;3.95;;;19.10;84.50;;;;;;5093566;28;20108;-16
2022/09/09 03:34:05;;;;;;;5.70;3.90;;;19.20;84.60;;;;;;5093793;28;20039;-15
2022/09/09 03:36:33;;;;;;;7.60;3.85;;;19.10;84.60;;;;;;5093255;28;20387;-15
2022/09/09 03:39:00;;;;;;;6.80;3.95;;;19.20;84.60;;;;;;5093321;28;20149;-15
2022/09/09 03:41:26;;;;;;;6.47;3.90;;;19.10;84.60;;;;;;5093527;28;20051;-16
2022/09/09 03:43:53;;;;;;;7.50;4.05;;;19.10;84.60;;;;;;5093553;28;20499;-16
2022/09/09 03:46:21;;;;;;;9.80;4.40;;;19.10;84.60;;;;;;5092876;28;20176;-16
2022/09/09 03:48:47;;;;;;;7.25;3.75;;;19.00;84.60;;;;;;5093440;28;20013;-16
2022/09/09 03:51:14;;;;;;;7.72;3.83;;;19.00;84.50;;;;;;5093171;28;20035;-17
2022/09/09 03:53:39;;;;;;;6.03;3.47;;;19.00;84.50;;;;;;5093406;28;20028;-16
2022/09/09 03:56:06;;;;;;;5.45;3.58;;;19.00;84.50;;;;;;5093115;28;20020;-16
2022/09/09 03:58:37;;;;;;;5.82;3.35;;;19.00;84.50;;;;;;5093386;28;20028;-16
2022/09/09 04:01:08;;;;;;;4.70;3.70;;;18.90;84.50;;;;;;5092736;28;20495;-16
2022/09/09 04:03:34;;;;;;;6.32;3.60;;;18.90;84.50;;;;;;5093073;28;20027;-16
2022/09/09 04:06:02;;;;;;;7.57;4.10;;;18.90;84.50;;;;;;5093024;28;20024;-16
2022/09/09 04:08:31;;;;;;;7.28;3.60;;;18.90;84.50;;;;;;5093118;28;20432;-17
2022/09/09 04:10:57;;;;;;;5.38;3.60;;;18.90;84.60;;;;;;5092682;28;20032;-16
2022/09/09 04:13:25;;;;;;;5.57;3.60;;;18.90;84.50;;;;;;5092938;28;20036;-16
2022/09/09 04:15:57;;;;;;;5.68;3.50;;;18.90;84.50;;;;;;5092840;28;20069;-16
2022/09/09 04:18:24;;;;;;;6.78;4.13;;;18.90;84.50;;;;;;5092992;28;20024;-15
2022/09/09 04:20:52;;;;;;;8.10;4.43;;;18.80;84.50;;;;;;5093025;28;20028;-16
2022/09/09 04:23:20;;;;;;;7.47;4.97;;;18.80;84.60;;;;;;5092853;28;20027;-15
2022/09/09 04:25:47;;;;;;;6.20;4.00;;;18.70;84.60;;;;;;5092786;28;20024;-16
2022/09/09 04:28:14;;;;;;;8.35;4.60;;;18.70;84.70;;;;;;5092939;28;20067;-16
2022/09/09 04:30:41;;;;;;;5.40;4.13;;;18.60;84.90;;;;;;5092875;28;20395;-17
2022/09/09 04:33:08;;;;;;;9.63;5.85;;;18.60;84.90;;;;;;5092739;28;20024;-16
2022/09/09 04:35:34;;;;;;;9.32;5.38;;;18.50;85.20;;;;;;5094029;28;20499;-17
2022/09/09 04:38:02;;;;;;;8.70;5.28;;;18.50;85.60;;;;;;5096599;28;20054;-16
2022/09/09 04:40:29;;;;;;;8.30;4.50;;;18.50;85.80;;;;;;5096655;28;20024;-15
2022/09/09 04:42:59;;;;;;;7.75;5.03;;;18.50;86.00;;;;;;5096261;28;20031;-15
2022/09/09 04:45:26;;;;;;;10.30;5.18;;;18.50;86.00;;;;;;5094842;28;20048;-15
2022/09/09 04:47:53;;;;;;;8.25;4.57;;;18.50;85.90;;;;;;5096618;28;20418;-16
2022/09/09 04:50:20;;;;;;;8.00;4.75;;;18.50;85.90;;;;;;5096214;28;20043;-17
2022/09/09 04:52:46;;;;;;;10.48;4.95;;;18.50;86.00;;;;;;5096585;28;20028;-17
2022/09/09 04:55:12;;;;;;;8.48;4.50;;;18.50;85.90;;;;;;5096030;28;20023;-17
2022/09/09 04:57:39;;;;;;;7.95;4.90;;;18.50;85.90;;;;;;5096116;28;20072;-15
2022/09/09 05:00:06;;;;;;;10.00;5.10;;;18.50;85.80;;;;;;5096209;28;20025;-16
2022/09/09 05:02:32;;;;;;;8.52;5.05;;;18.50;85.90;;;;;;5096309;28;20060;-16
2022/09/09 05:04:59;;;;;;;10.18;5.03;;;18.60;85.90;;;;;;5096008;28;20082;-15
2022/09/09 05:07:27;;;;;;;8.43;5.20;;;18.60;85.80;;;;;;5095873;28;20055;-16
2022/09/09 05:09:53;;;;;;;8.15;4.60;;;18.60;85.90;;;;;;5096224;28;20032;-16
2022/09/09 05:12:19;;;;;;;9.60;5.30;;;18.60;85.70;;;;;;5094624;28;20051;-16
2022/09/09 05:14:45;;;;;;;10.45;6.20;;;18.70;85.90;;;;;;5095827;28;20032;-15
2022/09/09 05:17:11;;;;;;;11.75;6.30;;;18.80;85.90;;;;;;5094251;28;20024;-15
2022/09/09 05:19:37;;;;;;;11.05;5.85;;;18.80;85.90;;;;;;5095756;28;20020;-16
2022/09/09 05:22:04;;;;;;;10.52;5.47;;;18.90;85.80;;;;;;5096227;28;20021;-16
2022/09/09 05:24:32;;;;;;;11.35;6.28;;;19.00;85.50;;;;;;5095771;28;20036;-16
2022/09/09 05:27:01;;;;;;;9.40;5.60;;;19.10;85.90;;;;;;5095676;28;20028;-16
2022/09/09 05:29:28;;;;;;;10.00;5.80;;;19.20;85.70;;;;;;5096046;28;20051;-16
2022/09/09 05:31:54;;;;;;;12.10;6.07;;;19.30;85.40;;;;;;5095498;28;20040;-15
2022/09/09 05:34:20;;;;;;;11.77;7.03;;;19.40;85.20;;;;;;5095752;28;20055;-16
2022/09/09 05:36:47;;;;;;;10.93;6.03;;;19.50;85.50;;;;;;5095556;28;20027;-16
2022/09/09 05:39:13;;;;;;;13.63;6.00;;;19.70;85.10;;;;;;5095486;28;20031;-16
2022/09/09 05:41:38;;;;;;;11.23;5.68;;;19.80;84.60;;;;;;5095673;28;20032;-16
2022/09/09 05:44:05;;;;;;;9.02;5.55;;;19.90;84.60;;;;;;5095263;28;20395;-17
2022/09/09 05:46:31;;;;;;;11.60;5.82;;;20.20;84.30;;;;;;5094218;28;20048;-17
2022/09/09 05:48:58;;;;;;;12.63;6.63;;;20.30;83.80;;;;;;5094778;28;20093;-16
2022/09/09 05:51:27;;;;;;;9.57;5.93;;;20.40;83.40;;;;;;5095606;28;20047;-17
2022/09/09 05:54:03;;;;;;;10.20;5.40;;;20.50;82.80;;;;;;5095408;28;20025;-16
2022/09/09 05:56:30;;;;;;;14.85;5.65;;;20.60;82.70;;;;;;5095318;28;20032;-15
2022/09/09 05:58:56;;;;;;;9.27;5.70;;;20.70;82.70;;;;;;5094773;28;20095;-15
2022/09/09 06:01:26;;;;;;;9.02;5.18;;;20.80;82.20;;;;;;5095357;28;20479;-15
2022/09/09 06:03:53;;;;;;;9.05;5.05;;;20.90;81.90;;;;;;5094843;28;20417;-16
2022/09/09 06:06:25;;;;;;;9.02;5.10;;;20.90;81.90;;;;;;5095070;28;20077;-15
2022/09/09 06:08:53;;;;;;;11.07;5.57;;;20.90;82.00;;;;;;5094539;28;20090;-15
2022/09/09 06:11:22;;;;;;;8.98;5.45;;;21.00;82.00;;;;;;5093458;28;20032;-15
2022/09/09 06:13:54;;;;;;;9.98;5.30;;;21.10;81.00;;;;;;5095040;28;20051;-15
2022/09/09 06:16:26;;;;;;;10.98;6.03;;;21.20;81.10;;;;;;5094510;28;20107;-15
2022/09/09 06:18:54;;;;;;;9.00;5.22;;;21.40;80.70;;;;;;5094924;28;20032;-15
2022/09/09 06:21:22;;;;;;;10.85;5.63;;;21.60;80.30;;;;;;5094505;28;20081;-15
2022/09/09 06:23:48;;;;;;;9.95;5.43;;;21.70;80.40;;;;;;5094535;28;20052;-15
2022/09/09 06:26:25;;;;;;;11.15;5.32;;;21.80;79.30;;;;;;5094743;28;20095;-15
2022/09/09 06:28:52;;;;;;;10.93;5.05;;;21.90;79.50;;;;;;5094151;28;20028;-14
2022/09/09 06:31:23;;;;;;;10.73;4.65;;;22.00;79.50;;;;;;5094598;28;20064;-15
2022/09/09 06:33:51;;;;;;;9.25;5.45;;;22.20;78.80;;;;;;5094285;28;20499;-15
2022/09/09 06:36:20;;;;;;;9.32;5.13;;;22.40;77.90;;;;;;5094452;28;20029;-15
2022/09/09 06:38:47;;;;;;;7.03;4.63;;;22.50;78.20;;;;;;5094520;28;20119;-16
2022/09/09 06:41:16;;;;;;;8.10;4.78;;;22.60;77.60;;;;;;5094162;28;20476;-16
2022/09/09 06:43:42;;;;;;;9.98;5.00;;;22.80;76.70;;;;;;5094529;28;20032;-14
2022/09/09 06:46:14;;;;;;;10.40;5.18;;;22.90;77.20;;;;;;5093652;28;20097;-15
2022/09/09 06:48:42;;;;;;;8.45;4.72;;;23.10;76.70;;;;;;5094200;28;20122;-15
2022/09/09 06:51:21;;;;;;;8.43;5.18;;;23.20;76.60;;;;;;5093909;28;20458;-15
2022/09/09 06:53:49;;;;;;;7.35;4.43;;;23.40;75.90;;;;;;5094296;28;20024;-16
2022/09/09 06:56:33;;;;;;;9.73;5.30;;;23.60;76.10;;;;;;5094436;28;20047;-15
2022/09/09 06:59:02;;;;;;;8.27;5.15;;;23.80;75.20;;;;;;5092090;28;20135;-15
2022/09/09 07:01:31;;;;;;;10.32;5.50;;;23.90;74.20;;;;;;5093949;28;20093;-15
2022/09/09 07:03:59;;;;;;;6.22;4.60;;;23.80;74.30;;;;;;5094055;28;20029;-16
2022/09/09 07:06:28;;;;;;;10.43;5.03;;;23.80;74.90;;;;;;5094038;28;20031;-15
2022/09/09 07:08:57;;;;;;;8.63;4.80;;;23.90;75.20;;;;;;5093706;28;20064;-15
2022/09/09 07:11:29;;;;;;;11.05;5.13;;;23.90;75.00;;;;;;5093944;28;20485;-15
2022/09/09 07:13:56;;;;;;;6.80;4.30;;;24.00;74.60;;;;;;5094119;28;20020;-15
2022/09/09 07:16:27;;;;;;;8.82;4.55;;;24.20;74.70;;;;;;5093652;28;20032;-16
2022/09/09 07:18:57;;;;;;;7.57;4.80;;;24.40;74.00;;;;;;5093374;28;20069;-15
2022/09/09 07:21:28;;;;;;;9.30;4.28;;;24.40;72.70;;;;;;5093502;28;20028;-15
2022/09/09 07:23:54;;;;;;;8.43;4.40;;;24.30;73.00;;;;;;5093831;28;20023;-15
2022/09/09 07:26:22;;;;;;;7.95;4.38;;;24.20;72.80;;;;;;5093708;28;20032;-15
2022/09/09 07:28:49;;;;;;;8.23;4.00;;;24.10;73.00;;;;;;5093416;28;20173;-15
2022/09/09 07:31:20;;;;;;;8.60;3.85;;;24.00;72.30;;;;;;5093273;28;20035;-15
2022/09/09 07:33:48;;;;;;;7.28;4.15;;;24.00;73.00;;;;;;5093651;28;20459;-15
2022/09/09 07:36:17;;;;;;;9.57;3.90;;;24.00;73.60;;;;;;5093278;28;20107;-16
2022/09/09 07:38:46;;;;;;;7.28;4.25;;;23.90;73.80;;;;;;5093564;28;20086;-16
2022/09/09 07:41:19;;;;;;;8.30;4.07;;;23.90;73.90;;;;;;5093413;28;20024;-15
2022/09/09 07:43:45;;;;;;;;;;;23.90;74.20;;;;;;5093978;28;20023;-16
2022/09/09 07:46:13;;;;;;;7.00;4.00;;;24.00;74.10;;;;;;5093023;28;20010;-16
2022/09/09 07:48:44;;;;;;;5.68;3.42;;;24.30;73.90;;;;;;5092074;28;20089;-15
2022/09/09 07:51:16;;;;;;;6.15;3.65;;;24.60;72.90;;;;;;5093043;28;20103;-15
2022/09/09 07:53:43;;;;;;;7.72;3.88;;;24.90;72.50;;;;;;5093493;28;20024;-15
2022/09/09 07:56:12;;;;;;;6.88;4.30;;;25.10;71.70;;;;;;5093098;28;20077;-15
2022/09/09 07:58:40;;;;;;;6.60;4.05;;;25.10;71.00;;;;;;5093051;28;20020;-15
2022/09/09 08:01:21;;;;;;;8.25;4.22;;;25.20;71.10;;;;;;5093087;28;20099;-15
2022/09/09 08:03:59;;;;;;;11.18;4.65;;;25.10;68.70;;;;;;5093779;28;20058;-15
2022/09/09 08:06:26;;;;;;;8.27;3.80;;;25.00;70.40;;;;;;5093353;28;20028;-15
2022/09/09 08:08:58;;;;;;;7.10;3.85;;;24.80;71.00;;;;;;5092646;28;20028;-15
2022/09/09 08:11:27;;;;;;;8.85;3.67;;;24.60;71.00;;;;;;5096090;28;20032;-15
2022/09/09 08:13:53;;;;;;;7.00;3.78;;;24.50;71.10;;;;;;5097018;28;20024;-15
2022/09/09 08:16:27;;;;;;;6.85;4.22;;;24.40;71.50;;;;;;5097133;28;20023;-15
2022/09/09 08:18:54;;;;;;;6.07;3.30;;;24.40;71.80;;;;;;5096734;28;20031;-15
2022/09/09 08:21:29;;;;;;;4.93;3.50;;;24.40;72.30;;;;;;5097167;28;20028;-15
2022/09/09 08:23:57;;;;;;;7.65;4.07;;;24.50;72.20;;;;;;5095672;28;20024;-15
2022/09/09 08:26:37;;;;;;;6.63;3.97;;;24.60;71.70;;;;;;5097048;28;20056;-16
2022/09/09 08:29:06;;;;;;;5.60;3.58;;;24.40;71.30;;;;;;5096620;28;20071;-16
2022/09/09 08:31:38;;;;;;;7.93;3.70;;;24.40;71.60;;;;;;5096900;28;20027;-15
2022/09/09 08:34:05;;;;;;;6.20;3.22;;;24.30;70.40;;;;;;5097113;28;20090;-15
2022/09/09 08:36:35;;;;;;;8.18;3.70;;;24.10;70.00;;;;;;5096798;28;20103;-13
2022/09/09 08:39:02;;;;;;;6.38;3.45;;;24.00;70.90;;;;;;5096613;28;20053;-16
2022/09/09 08:41:48;;;;;;;9.27;4.00;;;23.80;71.40;;;;;;5096984;28;20051;-16
2022/09/09 08:44:41;;;;;;;7.78;3.55;;;23.70;72.00;;;;;;5095305;28;20024;-16
2022/09/09 08:47:25;;;;;;;5.70;3.15;;;23.60;72.20;;;;;;5096244;28;20447;-16
2022/09/09 08:50:15;;;;;;;6.35;3.85;;;23.50;71.90;;;;;;5096681;28;20073;-16
2022/09/09 08:52:59;;;;;;;4.95;3.08;;;23.30;73.00;;;;;;5096513;28;20039;-15
2022/09/09 08:55:37;;;;;;;6.97;3.70;;;23.20;73.10;;;;;;5096491;28;20028;-15
2022/09/09 08:58:21;;;;;;;7.72;3.25;;;23.20;73.50;;;;;;5096638;28;20114;-15
2022/09/09 09:01:20;;;;;;;5.60;3.25;;;23.40;73.70;;;;;;5096398;28;20099;-17
2022/09/09 09:04:17;;;;;;;9.25;3.40;;;24.00;73.10;;;;;;5088496;28;20056;-16
2022/09/09 09:07:05;;;;;;;6.10;3.47;;;24.70;71.40;;;;;;5096400;28;20047;-16
2022/09/09 09:10:00;;;;;;;6.90;3.30;;;25.00;68.80;;;;;;5096202;28;20176;-15
2022/09/09 09:12:32;;;;;;;6.45;3.50;;;25.10;66.90;;;;;;5094745;28;20489;-17
2022/09/09 09:14:59;;;;;;;6.13;3.40;;;25.10;67.50;;;;;;5096006;28;20078;-15
2022/09/09 09:17:31;;;;;;;7.40;3.55;;;25.30;69.20;;;;;;5095833;28;20016;-14
2022/09/09 09:19:59;;;;;;;7.97;3.15;;;25.50;66.80;;;;;;5096351;28;20472;-16
2022/09/09 09:23:02;;;;;;;6.25;3.30;;;25.90;65.30;;;;;;5095750;28;20426;-16
2022/09/09 09:25:42;;;;;;;7.40;3.57;;;26.20;63.40;;;;;;5053493;28;20559;-15
2022/09/09 09:28:23;;;;;;;5.68;3.22;;;26.20;64.20;;;;;;5188862;22;20490;-15
2022/09/09 09:31:11;;;;;;;6.32;3.45;;;26.60;64.60;;;;;;5115960;28;20016;-15
2022/09/09 09:33:44;;;;;;;8.15;3.45;;;26.90;62.00;;;;;;5115987;28;20089;-15
2022/09/09 09:36:10;;;;;;;9.85;3.45;;;26.90;61.40;;;;;;5116268;28;20027;-15
2022/09/09 09:38:37;;;;;;;5.78;3.10;;;27.10;62.60;;;;;;5116100;28;20027;-15
2022/09/09 09:41:03;;;;;;;8.13;3.03;;;27.40;63.00;;;;;;5115808;28;20028;-15
2022/09/09 09:43:32;;;;;;;5.38;2.78;;;27.60;61.50;;;;;;5115899;28;20081;-15
2022/09/09 09:45:59;;;;;;;6.13;3.25;;;27.70;61.20;;;;;;5115648;28;20034;-17
2022/09/09 09:48:27;;;;;;;9.30;3.88;;;27.90;61.20;;;;;;5115532;28;20059;-16
2022/09/09 09:51:00;;;;;;;6.95;3.33;;;27.80;62.80;;;;;;5115326;28;20027;-16
2022/09/09 09:53:28;;;;;;;6.25;3.00;;;27.50;62.70;;;;;;5115878;28;20024;-15
2022/09/09 09:55:58;;;;;;;4.75;3.15;;;27.50;62.50;;;;;;5115726;28;20412;-15
2022/09/09 09:58:28;;;;;;;6.32;3.25;;;27.60;62.70;;;;;;5115730;28;20047;-15
2022/09/09 10:00:55;;;;;;;7.00;3.38;;;27.60;62.20;;;;;;5115431;28;20026;-15
2022/09/09 10:03:31;;;;;;;7.10;3.45;;;27.90;60.70;;;;;;5115655;28;20027;-15
2022/09/09 10:05:58;;;;;;;7.28;3.10;;;28.00;61.10;;;;;;5115531;28;20020;-15
2022/09/09 10:08:28;;;;;;;8.77;3.60;;;28.20;61.30;;;;;;5115231;28;20028;-15
2022/09/09 10:11:09;;;;;;;9.25;3.70;;;28.10;62.80;;;;;;5151717;22;20056;-19
2022/09/09 10:13:59;;;;;;;6.40;3.45;;;28.20;58.50;;;;;;5073877;28;20460;-17
2022/09/09 10:16:44;;;;;;;8.25;3.13;;;28.20;59.30;;;;;;5073846;28;20025;-18
2022/09/09 10:19:15;;;;;;;5.13;2.90;;;28.20;60.40;;;;;;5073648;28;20036;-18
2022/09/09 10:22:06;;;;;;;6.38;3.00;;;28.50;59.70;;;;;;5073922;28;20051;-18
2022/09/09 10:24:35;;;;;;;6.88;3.13;;;28.70;60.30;;;;;;5073571;28;20063;-19
2022/09/09 10:27:25;;;;;;;5.68;2.88;;;28.70;58.90;;;;;;5073248;28;20438;-18
2022/09/09 10:30:09;;;;;;;6.15;3.03;;;28.80;57.90;;;;;;5073604;28;20040;-19
2022/09/09 10:32:55;;;;;;;7.35;3.30;;;28.30;58.90;;;;;;5072837;28;20106;-17
2022/09/09 10:35:51;;;;;;;7.97;3.25;;;27.50;58.90;;;;;;5073562;28;20028;-18
2022/09/09 10:38:24;;;;;;;6.40;3.25;;;27.50;60.50;;;;;;5019360;28;20390;-18
2022/09/09 10:41:00;;;;;;;7.20;3.17;;;27.70;60.00;;;;;;5072842;28;20440;-17
2022/09/09 10:44:05;;;;;;;6.90;3.20;;;28.00;60.70;;;;;;5073462;28;20086;-17
2022/09/09 10:46:49;;;;;;;5.82;3.20;;;28.30;59.20;;;;;;5073350;28;20020;-17
2022/09/09 10:49:42;;;;;;;5.10;2.90;;;28.30;58.60;;;;;;5073287;28;20032;-17
2022/09/09 10:52:26;;;;;;;4.57;2.88;;;28.80;59.40;;;;;;5073262;28;20093;-17
2022/09/09 10:55:14;;;;;;;4.85;3.17;;;29.20;55.90;;;;;;5072900;28;20024;-18
2022/09/09 10:57:48;;;;;;;6.00;2.85;;;29.10;55.50;;;;;;5073154;28;20021;-18
2022/09/09 11:00:20;;;;;;;7.05;3.20;;;29.10;55.40;;;;;;5073231;28;20016;-18
2022/09/09 11:03:19;;;;;;;6.30;3.10;;;29.20;57.30;;;;;;5072821;28;20024;-18
2022/09/09 11:05:52;;;;;;;7.13;3.22;;;29.50;54.80;;;;;;5010988;28;20272;-18
2022/09/09 11:08:17;;;;;;;;;;;29.70;55.70;;;;;;5011458;28;20112;-17
2022/09/09 11:10:57;;;;;;;5.85;3.08;;;29.90;54.40;;;;;;4966488;28;1289814;-17
2022/09/09 11:13:54;;;;;;;6.93;3.28;;;29.40;54.20;;;;;;5011803;28;20541;-18
2022/09/09 11:16:39;;;;;;;7.35;3.30;;;29.00;55.00;;;;;;5011721;28;20619;-18
2022/09/09 11:19:17;;;;;;;5.80;3.28;;;28.50;56.10;;;;;;5011497;28;20394;-17
2022/09/09 11:21:48;;;;;;;5.93;3.10;;;28.20;57.40;;;;;;5011649;28;20026;-19
2022/09/09 11:24:34;;;;;;;7.20;3.20;;;27.70;59.30;;;;;;4995132;28;20026;-20
2022/09/09 11:27:16;;;;;;;9.63;3.47;;;27.40;60.20;;;;;;4998096;28;20520;-19
2022/09/09 11:29:53;;;;;;;7.68;3.75;;;27.20;61.50;;;;;;5011549;28;20038;-18
2022/09/09 11:32:44;;;;;;;6.88;3.33;;;27.10;62.20;;;;;;5011511;28;20033;-18
2022/09/09 11:35:47;;;;;;;7.32;3.30;;;27.20;63.00;;;;;;5011357;28;20044;-18
2022/09/09 11:38:18;;;;;;;6.55;3.65;;;27.60;60.70;;;;;;5011456;28;20033;-17
2022/09/09 11:40:46;;;;;;;6.30;3.42;;;27.90;60.40;;;;;;5011518;28;20496;-17
2022/09/09 11:43:24;;;;;;;8.40;3.90;;;27.90;60.50;;;;;;5070763;28;20033;-17
2022/09/09 11:45:58;;;;;;;7.50;3.38;;;27.70;61.00;;;;;;5072143;28;20078;-19
2022/09/09 11:48:45;;;;;;;5.90;3.40;;;27.40;60.80;;;;;;5073285;28;20033;-18
2022/09/09 11:51:20;;;;;;;6.38;3.30;;;27.00;61.90;;;;;;5073129;28;20059;-18
2022/09/09 11:54:04;;;;;;;7.43;3.53;;;26.60;63.10;;;;;;5073207;28;20076;-18
2022/09/09 11:56:43;;;;;;;6.93;3.50;;;26.50;62.90;;;;;;5072969;28;20025;-19
2022/09/09 11:59:24;;;;;;;7.82;3.78;;;26.30;63.50;;;;;;5072797;28;20024;-18
2022/09/09 12:01:56;;;;;;;4.88;3.58;;;26.30;64.60;;;;;;5072862;28;20530;-18
2022/09/09 12:04:25;;;;;;;6.63;3.67;;;26.20;64.50;;;;;;5072883;28;20031;-18
2022/09/09 12:06:56;;;;;;;4.53;3.20;;;26.10;64.90;;;;;;5072630;28;20033;-18
2022/09/09 12:09:25;;;;;;;6.18;3.47;;;25.90;66.20;;;;;;5072841;28;20143;-20
2022/09/09 12:11:51;;;;;;;6.72;3.50;;;25.90;65.90;;;;;;5073085;28;20025;-19
2022/09/09 12:14:45;;;;;;;6.35;3.53;;;25.60;65.60;;;;;;5071543;28;20493;-19
2022/09/09 12:17:22;;;;;;;5.63;3.42;;;25.50;66.20;;;;;;5072570;28;20025;-18
2022/09/09 12:20:04;;;;;;;7.07;3.50;;;25.40;66.80;;;;;;5073049;28;20037;-18
2022/09/09 12:23:03;;;;;;;5.93;3.38;;;25.50;65.90;;;;;;5072731;28;20426;-19
2022/09/09 12:25:35;;;;;;;9.15;3.22;;;25.40;66.50;;;;;;5072911;28;20040;-18
2022/09/09 12:28:24;;;;;;;9.30;3.55;;;25.40;67.10;;;;;;5072566;28;20067;-19
2022/09/09 12:30:55;;;;;;;7.30;3.50;;;25.40;66.80;;;;;;5072631;28;20052;-18
2022/09/09 12:33:23;;;;;;;6.22;3.40;;;25.40;67.50;;;;;;5073063;28;20020;-19
2022/09/09 12:35:56;;;;;;;6.28;3.20;;;25.40;67.60;;;;;;5072948;28;20048;-17
2022/09/09 12:38:43;;;;;;;6.00;3.50;;;25.40;67.50;;;;;;5072857;28;20028;-17
2022/09/09 12:41:28;;;;;;;4.03;3.30;;;25.40;67.10;;;;;;5072502;28;20029;-18
2022/09/09 12:44:09;;;;;;;6.85;3.42;;;25.40;66.90;;;;;;5072274;28;20043;-17
2022/09/09 12:46:43;;;;;;;6.28;3.35;;;25.40;67.20;;;;;;5072754;28;20052;-17
2022/09/09 12:49:29;;;;;;;5.30;3.20;;;25.40;67.60;;;;;;5072500;28;20033;-18
2022/09/09 12:51:57;;;;;;;4.20;3.47;;;25.30;68.30;;;;;;5072706;28;20115;-20
2022/09/09 12:54:23;;;;;;;7.32;3.63;;;25.20;68.40;;;;;;5072268;28;20024;-19
2022/09/09 12:56:49;;;;;;;10.57;4.03;;;25.10;69.80;;;;;;5073764;28;20434;-20
2022/09/09 12:59:34;;;;;;;18.45;4.60;;;24.90;71.00;;;;;;5076283;28;20036;-19
2022/09/09 13:02:01;;;;;;;17.65;3.30;;;24.70;73.10;;;;;;5076129;28;20032;-19
2022/09/09 13:04:27;;;;;;;6.50;2.45;;;24.00;73.60;;;;;;5076260;28;20035;-18
2022/09/09 13:06:53;;;;;;;5.53;2.35;;;23.00;74.70;;;;;;5075907;28;20491;-19
2022/09/09 13:09:19;;;;;;;4.60;1.45;;;22.10;76.20;;;;;;5074179;28;20530;-17
2022/09/09 13:11:50;;;;;;;2.80;1.10;;;21.40;77.40;;;;;;5075984;28;20480;-18
2022/09/09 13:14:48;;;;;;;3.38;1.20;;;20.80;78.10;;;;;;5075767;28;20016;-19
2022/09/09 13:17:26;;;;;;;2.53;1.10;;;20.40;76.90;;;;;;5014167;28;20064;-19
2022/09/09 13:19:53;;;;;;;2.70;1.35;;;19.90;78.40;;;;;;5013801;28;20477;-18